sensor_id;sensor_type;location;lat;lon;timestamp;P1;durP1;ratioP1;P2;durP2;ratioP2
44120;SDS011;29783;52.504;13.478;2023-09-18T00:00:25;7.65;;;6.95;;
44120;SDS011;29783;52.504;13.478;2023-09-18T00:02:52;8.57;;;7.03;;
44120;SDS011;29783;52.504;13.478;2023-09-18T00:05:17;9.50;;;6.50;;
44120;SDS011;29783;52.504;13.478;2023-09-18T00:07:43;7.72;;;7.00;;
44120;SDS011;29783;52.504;13.478;2023-09-18T00:10:12;8.48;;;6.53;;
44120;SDS011;29783;52.504;13.478;2023-09-18T00:12:39;9.70;;;7.05;;
44120;SDS011;29783;52.504;13.478;2023-09-18T00:15:06;10.82;;;7.30;;
44120;SDS011;29783;52.504;13.478;2023-09-18T00:17:34;7.50;;;6.80;;
44120;SDS011;29783;52.504;13.478;2023-09-18T00:20:00;9.75;;;7.30;;
44120;SDS011;29783;52.504;13.478;2023-09-18T00:22:25;7.28;;;6.50;;
44120;SDS011;29783;52.504;13.478;2023-09-18T00:24:51;8.70;;;7.03;;
44120;SDS011;29783;52.504;13.478;2023-09-18T00:27:18;11.75;;;7.15;;
44120;SDS011;29783;52.504;13.478;2023-09-18T00:29:44;7.97;;;7.18;;
44120;SDS011;29783;52.504;13.478;2023-09-18T00:32:09;8.38;;;6.55;;
44120;SDS011;29783;52.504;13.478;2023-09-18T00:34:36;12.63;;;7.07;;
44120;SDS011;29783;52.504;13.478;2023-09-18T00:37:03;8.43;;;7.38;;
44120;SDS011;29783;52.504;13.478;2023-09-18T00:39:28;10.27;;;6.80;;
44120;SDS011;29783;52.504;13.478;2023-09-18T00:41:56;8.63;;;7.13;;
44120;SDS011;29783;52.504;13.478;2023-09-18T00:44:22;8.57;;;7.25;;
44120;SDS011;29783;52.504;13.478;2023-09-18T00:46:51;8.45;;;6.82;;
44120;SDS011;29783;52.504;13.478;2023-09-18T00:49:19;11.50;;;7.00;;
44120;SDS011;29783;52.504;13.478;2023-09-18T00:51:45;7.78;;;6.97;;
44120;SDS011;29783;52.504;13.478;2023-09-18T00:54:12;8.23;;;7.05;;
44120;SDS011;29783;52.504;13.478;2023-09-18T00:56:41;7.85;;;7.05;;
44120;SDS011;29783;52.504;13.478;2023-09-18T00:59:07;10.52;;;6.90;;
44120;SDS011;29783;52.504;13.478;2023-09-18T01:01:34;8.02;;;7.03;;
44120;SDS011;29783;52.504;13.478;2023-09-18T01:04:00;8.30;;;7.30;;
44120;SDS011;29783;52.504;13.478;2023-09-18T01:06:26;8.95;;;7.13;;
44120;SDS011;29783;52.504;13.478;2023-09-18T01:08:55;8.00;;;7.10;;
44120;SDS011;29783;52.504;13.478;2023-09-18T01:16:56;7.72;;;6.72;;
44120;SDS011;29783;52.504;13.478;2023-09-18T01:22:16;9.43;;;7.30;;
44120;SDS011;29783;52.504;13.478;2023-09-18T01:24:43;8.68;;;7.38;;
44120;SDS011;29783;52.504;13.478;2023-09-18T01:27:11;7.93;;;7.13;;
44120;SDS011;29783;52.504;13.478;2023-09-18T01:29:42;9.70;;;6.88;;
44120;SDS011;29783;52.504;13.478;2023-09-18T01:32:08;8.82;;;7.47;;
44120;SDS011;29783;52.504;13.478;2023-09-18T01:34:34;9.77;;;7.28;;
44120;SDS011;29783;52.504;13.478;2023-09-18T01:37:05;9.68;;;7.45;;
44120;SDS011;29783;52.504;13.478;2023-09-18T01:39:32;9.35;;;7.38;;
44120;SDS011;29783;52.504;13.478;2023-09-18T01:42:00;8.15;;;7.35;;
44120;SDS011;29783;52.504;13.478;2023-09-18T01:44:34;12.75;;;9.23;;
44120;SDS011;29783;52.504;13.478;2023-09-18T01:47:05;14.10;;;7.68;;
44120;SDS011;29783;52.504;13.478;2023-09-18T01:49:33;8.30;;;7.50;;
44120;SDS011;29783;52.504;13.478;2023-09-18T01:52:00;8.90;;;7.32;;
44120;SDS011;29783;52.504;13.478;2023-09-18T01:54:26;8.00;;;7.20;;
44120;SDS011;29783;52.504;13.478;2023-09-18T01:56:52;7.97;;;7.18;;
44120;SDS011;29783;52.504;13.478;2023-09-18T01:59:18;11.55;;;7.47;;
44120;SDS011;29783;52.504;13.478;2023-09-18T02:01:45;8.95;;;7.47;;
44120;SDS011;29783;52.504;13.478;2023-09-18T02:04:10;7.88;;;6.80;;
44120;SDS011;29783;52.504;13.478;2023-09-18T02:06:36;10.02;;;7.00;;
44120;SDS011;29783;52.504;13.478;2023-09-18T02:09:02;10.07;;;7.07;;
44120;SDS011;29783;52.504;13.478;2023-09-18T02:11:30;11.90;;;7.13;;
44120;SDS011;29783;52.504;13.478;2023-09-18T02:13:56;8.43;;;7.57;;
44120;SDS011;29783;52.504;13.478;2023-09-18T02:16:22;8.02;;;7.18;;
44120;SDS011;29783;52.504;13.478;2023-09-18T02:18:49;15.25;;;7.60;;
44120;SDS011;29783;52.504;13.478;2023-09-18T02:21:18;8.15;;;7.35;;
44120;SDS011;29783;52.504;13.478;2023-09-18T02:23:50;11.75;;;7.43;;
44120;SDS011;29783;52.504;13.478;2023-09-18T02:26:17;12.85;;;7.47;;
44120;SDS011;29783;52.504;13.478;2023-09-18T02:28:46;12.05;;;7.25;;
44120;SDS011;29783;52.504;13.478;2023-09-18T02:31:12;8.30;;;7.40;;
44120;SDS011;29783;52.504;13.478;2023-09-18T02:33:38;9.30;;;6.82;;
44120;SDS011;29783;52.504;13.478;2023-09-18T02:36:04;8.13;;;7.32;;
44120;SDS011;29783;52.504;13.478;2023-09-18T02:38:30;8.35;;;6.90;;
44120;SDS011;29783;52.504;13.478;2023-09-18T02:40:56;12.77;;;7.03;;
44120;SDS011;29783;52.504;13.478;2023-09-18T02:43:22;7.60;;;6.90;;
44120;SDS011;29783;52.504;13.478;2023-09-18T02:45:48;9.27;;;7.13;;
44120;SDS011;29783;52.504;13.478;2023-09-18T02:48:15;7.95;;;7.13;;
44120;SDS011;29783;52.504;13.478;2023-09-18T02:50:41;10.20;;;7.30;;
44120;SDS011;29783;52.504;13.478;2023-09-18T02:53:07;10.48;;;7.38;;
44120;SDS011;29783;52.504;13.478;2023-09-18T02:55:36;8.93;;;7.32;;
44120;SDS011;29783;52.504;13.478;2023-09-18T02:58:02;8.90;;;7.32;;
44120;SDS011;29783;52.504;13.478;2023-09-18T03:00:28;13.25;;;7.18;;
44120;SDS011;29783;52.504;13.478;2023-09-18T03:02:54;9.48;;;7.50;;
44120;SDS011;29783;52.504;13.478;2023-09-18T03:05:19;10.13;;;7.32;;
44120;SDS011;29783;52.504;13.478;2023-09-18T03:07:45;8.25;;;7.40;;
44120;SDS011;29783;52.504;13.478;2023-09-18T03:10:10;9.48;;;7.30;;
44120;SDS011;29783;52.504;13.478;2023-09-18T03:12:39;8.23;;;7.32;;
44120;SDS011;29783;52.504;13.478;2023-09-18T03:15:05;8.48;;;7.25;;
44120;SDS011;29783;52.504;13.478;2023-09-18T03:17:31;10.45;;;6.82;;
44120;SDS011;29783;52.504;13.478;2023-09-18T03:19:57;10.75;;;7.03;;
44120;SDS011;29783;52.504;13.478;2023-09-18T03:22:23;8.85;;;6.95;;
44120;SDS011;29783;52.504;13.478;2023-09-18T03:24:51;9.40;;;6.93;;
44120;SDS011;29783;52.504;13.478;2023-09-18T03:27:16;10.35;;;7.85;;
44120;SDS011;29783;52.504;13.478;2023-09-18T03:29:43;7.75;;;6.95;;
44120;SDS011;29783;52.504;13.478;2023-09-18T03:32:09;9.20;;;7.07;;
44120;SDS011;29783;52.504;13.478;2023-09-18T03:34:37;16.23;;;7.18;;
44120;SDS011;29783;52.504;13.478;2023-09-18T03:37:03;8.02;;;6.95;;
44120;SDS011;29783;52.504;13.478;2023-09-18T03:39:29;9.57;;;6.97;;
44120;SDS011;29783;52.504;13.478;2023-09-18T03:41:54;9.07;;;7.60;;
44120;SDS011;29783;52.504;13.478;2023-09-18T03:44:20;8.07;;;6.78;;
44120;SDS011;29783;52.504;13.478;2023-09-18T03:46:46;9.02;;;7.25;;
44120;SDS011;29783;52.504;13.478;2023-09-18T03:49:12;9.60;;;7.20;;
44120;SDS011;29783;52.504;13.478;2023-09-18T03:51:38;14.15;;;7.47;;
44120;SDS011;29783;52.504;13.478;2023-09-18T03:54:03;8.85;;;7.07;;
44120;SDS011;29783;52.504;13.478;2023-09-18T03:56:29;8.13;;;7.28;;
44120;SDS011;29783;52.504;13.478;2023-09-18T03:58:55;9.70;;;7.35;;
44120;SDS011;29783;52.504;13.478;2023-09-18T04:01:22;8.50;;;7.07;;
44120;SDS011;29783;52.504;13.478;2023-09-18T04:03:48;9.48;;;7.43;;
44120;SDS011;29783;52.504;13.478;2023-09-18T04:06:13;9.23;;;7.20;;
44120;SDS011;29783;52.504;13.478;2023-09-18T04:08:39;13.18;;;7.40;;
44120;SDS011;29783;52.504;13.478;2023-09-18T04:11:05;9.50;;;7.30;;
44120;SDS011;29783;52.504;13.478;2023-09-18T04:13:34;8.90;;;7.40;;
44120;SDS011;29783;52.504;13.478;2023-09-18T04:16:00;9.15;;;7.18;;
44120;SDS011;29783;52.504;13.478;2023-09-18T04:18:28;8.50;;;7.28;;
44120;SDS011;29783;52.504;13.478;2023-09-18T04:20:54;10.18;;;7.90;;
44120;SDS011;29783;52.504;13.478;2023-09-18T04:23:21;9.20;;;7.75;;
44120;SDS011;29783;52.504;13.478;2023-09-18T04:25:48;12.98;;;7.30;;
44120;SDS011;29783;52.504;13.478;2023-09-18T04:28:18;9.82;;;7.60;;
44120;SDS011;29783;52.504;13.478;2023-09-18T04:30:45;8.48;;;7.57;;
44120;SDS011;29783;52.504;13.478;2023-09-18T04:33:11;10.90;;;7.28;;
44120;SDS011;29783;52.504;13.478;2023-09-18T04:35:38;10.18;;;7.80;;
44120;SDS011;29783;52.504;13.478;2023-09-18T04:38:06;8.60;;;7.70;;
44120;SDS011;29783;52.504;13.478;2023-09-18T04:40:36;10.88;;;7.45;;
44120;SDS011;29783;52.504;13.478;2023-09-18T04:43:02;10.73;;;7.70;;
44120;SDS011;29783;52.504;13.478;2023-09-18T04:45:31;12.48;;;7.57;;
44120;SDS011;29783;52.504;13.478;2023-09-18T04:47:56;10.85;;;7.32;;
44120;SDS011;29783;52.504;13.478;2023-09-18T04:50:22;12.63;;;8.02;;
44120;SDS011;29783;52.504;13.478;2023-09-18T04:52:48;9.02;;;7.80;;
44120;SDS011;29783;52.504;13.478;2023-09-18T04:55:15;10.00;;;7.65;;
44120;SDS011;29783;52.504;13.478;2023-09-18T04:57:42;8.93;;;7.88;;
44120;SDS011;29783;52.504;13.478;2023-09-18T05:00:10;11.48;;;7.65;;
44120;SDS011;29783;52.504;13.478;2023-09-18T05:02:38;10.73;;;7.85;;
44120;SDS011;29783;52.504;13.478;2023-09-18T05:05:05;11.57;;;8.02;;
44120;SDS011;29783;52.504;13.478;2023-09-18T05:07:33;12.50;;;8.55;;
44120;SDS011;29783;52.504;13.478;2023-09-18T05:09:59;10.45;;;7.95;;
44120;SDS011;29783;52.504;13.478;2023-09-18T05:12:25;13.68;;;7.85;;
44120;SDS011;29783;52.504;13.478;2023-09-18T05:14:50;12.32;;;7.22;;
44120;SDS011;29783;52.504;13.478;2023-09-18T05:17:17;11.13;;;7.80;;
44120;SDS011;29783;52.504;13.478;2023-09-18T05:19:43;9.93;;;7.85;;
44120;SDS011;29783;52.504;13.478;2023-09-18T05:22:08;14.52;;;7.00;;
44120;SDS011;29783;52.504;13.478;2023-09-18T05:24:37;11.85;;;7.78;;
44120;SDS011;29783;52.504;13.478;2023-09-18T05:27:03;8.30;;;6.65;;
44120;SDS011;29783;52.504;13.478;2023-09-18T05:29:31;8.88;;;6.88;;
44120;SDS011;29783;52.504;13.478;2023-09-18T05:31:57;11.30;;;7.13;;
44120;SDS011;29783;52.504;13.478;2023-09-18T05:34:22;16.55;;;7.43;;
44120;SDS011;29783;52.504;13.478;2023-09-18T05:36:48;12.38;;;6.70;;
44120;SDS011;29783;52.504;13.478;2023-09-18T05:39:14;10.52;;;6.95;;
44120;SDS011;29783;52.504;13.478;2023-09-18T05:41:39;10.98;;;7.40;;
44120;SDS011;29783;52.504;13.478;2023-09-18T05:44:05;9.45;;;6.90;;
44120;SDS011;29783;52.504;13.478;2023-09-18T05:46:33;14.68;;;6.53;;
44120;SDS011;29783;52.504;13.478;2023-09-18T05:49:00;16.52;;;7.22;;
44120;SDS011;29783;52.504;13.478;2023-09-18T05:51:26;7.95;;;6.50;;
44120;SDS011;29783;52.504;13.478;2023-09-18T05:53:52;14.95;;;6.85;;
44120;SDS011;29783;52.504;13.478;2023-09-18T05:56:18;16.13;;;6.75;;
44120;SDS011;29783;52.504;13.478;2023-09-18T05:58:43;8.68;;;6.43;;
44120;SDS011;29783;52.504;13.478;2023-09-18T06:01:09;15.95;;;8.30;;
44120;SDS011;29783;52.504;13.478;2023-09-18T06:03:35;8.90;;;6.35;;
44120;SDS011;29783;52.504;13.478;2023-09-18T06:06:04;11.82;;;7.50;;
44120;SDS011;29783;52.504;13.478;2023-09-18T06:08:30;9.95;;;6.72;;
44120;SDS011;29783;52.504;13.478;2023-09-18T06:10:59;9.13;;;6.47;;
44120;SDS011;29783;52.504;13.478;2023-09-18T06:13:25;10.57;;;6.13;;
44120;SDS011;29783;52.504;13.478;2023-09-18T06:15:51;42.33;;;8.02;;
44120;SDS011;29783;52.504;13.478;2023-09-18T06:18:19;29.05;;;7.78;;
44120;SDS011;29783;52.504;13.478;2023-09-18T06:20:47;14.57;;;6.78;;
44120;SDS011;29783;52.504;13.478;2023-09-18T06:23:14;16.90;;;6.60;;
44120;SDS011;29783;52.504;13.478;2023-09-18T06:25:39;13.45;;;6.53;;
44120;SDS011;29783;52.504;13.478;2023-09-18T06:28:05;9.60;;;6.55;;
44120;SDS011;29783;52.504;13.478;2023-09-18T06:30:31;10.38;;;5.82;;
44120;SDS011;29783;52.504;13.478;2023-09-18T06:32:58;17.30;;;6.32;;
44120;SDS011;29783;52.504;13.478;2023-09-18T06:35:24;6.20;;;5.50;;
44120;SDS011;29783;52.504;13.478;2023-09-18T06:37:50;9.30;;;5.97;;
44120;SDS011;29783;52.504;13.478;2023-09-18T06:40:16;14.27;;;5.88;;
44120;SDS011;29783;52.504;13.478;2023-09-18T06:42:42;20.13;;;6.30;;
44120;SDS011;29783;52.504;13.478;2023-09-18T06:45:07;11.05;;;5.80;;
44120;SDS011;29783;52.504;13.478;2023-09-18T06:47:33;6.50;;;5.75;;
44120;SDS011;29783;52.504;13.478;2023-09-18T06:49:59;7.93;;;5.80;;
44120;SDS011;29783;52.504;13.478;2023-09-18T06:52:28;12.25;;;6.07;;
44120;SDS011;29783;52.504;13.478;2023-09-18T06:54:54;11.38;;;5.57;;
44120;SDS011;29783;52.504;13.478;2023-09-18T06:57:19;7.28;;;5.00;;
44120;SDS011;29783;52.504;13.478;2023-09-18T06:59:46;14.95;;;5.70;;
44120;SDS011;29783;52.504;13.478;2023-09-18T07:02:12;13.40;;;5.57;;
44120;SDS011;29783;52.504;13.478;2023-09-18T07:04:39;9.07;;;5.50;;
44120;SDS011;29783;52.504;13.478;2023-09-18T07:07:09;12.35;;;5.43;;
44120;SDS011;29783;52.504;13.478;2023-09-18T07:09:39;6.03;;;4.85;;
44120;SDS011;29783;52.504;13.478;2023-09-18T07:12:06;9.70;;;5.70;;
44120;SDS011;29783;52.504;13.478;2023-09-18T07:14:34;7.13;;;4.70;;
44120;SDS011;29783;52.504;13.478;2023-09-18T07:17:00;15.75;;;5.53;;
44120;SDS011;29783;52.504;13.478;2023-09-18T07:19:26;6.53;;;4.90;;
44120;SDS011;29783;52.504;13.478;2023-09-18T07:21:52;7.03;;;5.00;;
44120;SDS011;29783;52.504;13.478;2023-09-18T07:24:17;8.68;;;4.68;;
44120;SDS011;29783;52.504;13.478;2023-09-18T07:26:44;9.75;;;5.00;;
44120;SDS011;29783;52.504;13.478;2023-09-18T07:29:10;6.60;;;4.70;;
44120;SDS011;29783;52.504;13.478;2023-09-18T07:31:36;7.13;;;4.63;;
44120;SDS011;29783;52.504;13.478;2023-09-18T07:34:02;7.22;;;4.40;;
44120;SDS011;29783;52.504;13.478;2023-09-18T07:36:29;7.53;;;4.65;;
44120;SDS011;29783;52.504;13.478;2023-09-18T07:38:55;8.98;;;4.00;;
44120;SDS011;29783;52.504;13.478;2023-09-18T07:41:21;8.05;;;4.80;;
44120;SDS011;29783;52.504;13.478;2023-09-18T07:43:47;9.10;;;4.47;;
44120;SDS011;29783;52.504;13.478;2023-09-18T07:46:13;5.47;;;4.25;;
44120;SDS011;29783;52.504;13.478;2023-09-18T07:48:38;10.13;;;3.92;;
44120;SDS011;29783;52.504;13.478;2023-09-18T07:51:04;4.80;;;4.30;;
44120;SDS011;29783;52.504;13.478;2023-09-18T07:53:30;14.93;;;4.82;;
44120;SDS011;29783;52.504;13.478;2023-09-18T07:55:57;8.70;;;4.93;;
44120;SDS011;29783;52.504;13.478;2023-09-18T07:58:24;15.68;;;5.65;;
44120;SDS011;29783;52.504;13.478;2023-09-18T08:00:53;8.98;;;4.15;;
44120;SDS011;29783;52.504;13.478;2023-09-18T08:03:19;8.38;;;3.78;;
44120;SDS011;29783;52.504;13.478;2023-09-18T08:05:49;6.45;;;3.92;;
44120;SDS011;29783;52.504;13.478;2023-09-18T08:08:16;5.30;;;3.72;;
44120;SDS011;29783;52.504;13.478;2023-09-18T08:10:42;9.40;;;4.07;;
44120;SDS011;29783;52.504;13.478;2023-09-18T08:13:08;10.55;;;3.42;;
44120;SDS011;29783;52.504;13.478;2023-09-18T08:15:34;4.40;;;3.50;;
44120;SDS011;29783;52.504;13.478;2023-09-18T08:17:59;7.13;;;3.53;;
44120;SDS011;29783;52.504;13.478;2023-09-18T08:20:25;7.43;;;3.22;;
44120;SDS011;29783;52.504;13.478;2023-09-18T08:22:53;11.82;;;3.33;;
44120;SDS011;29783;52.504;13.478;2023-09-18T08:25:18;7.70;;;3.63;;
44120;SDS011;29783;52.504;13.478;2023-09-18T08:27:44;4.32;;;3.15;;
44120;SDS011;29783;52.504;13.478;2023-09-18T08:30:10;6.82;;;3.60;;
44120;SDS011;29783;52.504;13.478;2023-09-18T08:32:38;7.53;;;3.03;;
44120;SDS011;29783;52.504;13.478;2023-09-18T08:35:05;10.75;;;3.58;;
44120;SDS011;29783;52.504;13.478;2023-09-18T08:37:31;5.55;;;2.90;;
44120;SDS011;29783;52.504;13.478;2023-09-18T08:39:57;8.10;;;3.22;;
44120;SDS011;29783;52.504;13.478;2023-09-18T08:42:25;5.13;;;3.35;;
44120;SDS011;29783;52.504;13.478;2023-09-18T08:44:54;10.43;;;3.50;;
44120;SDS011;29783;52.504;13.478;2023-09-18T08:47:23;6.50;;;2.95;;
44120;SDS011;29783;52.504;13.478;2023-09-18T08:49:50;8.02;;;3.30;;
44120;SDS011;29783;52.504;13.478;2023-09-18T08:52:17;3.75;;;3.10;;
44120;SDS011;29783;52.504;13.478;2023-09-18T08:54:43;6.05;;;3.05;;
44120;SDS011;29783;52.504;13.478;2023-09-18T08:57:10;9.73;;;3.47;;
44120;SDS011;29783;52.504;13.478;2023-09-18T08:59:36;4.57;;;3.03;;
44120;SDS011;29783;52.504;13.478;2023-09-18T09:02:04;6.03;;;3.33;;
44120;SDS011;29783;52.504;13.478;2023-09-18T09:04:30;7.65;;;2.97;;
44120;SDS011;29783;52.504;13.478;2023-09-18T09:06:56;5.35;;;3.15;;
44120;SDS011;29783;52.504;13.478;2023-09-18T09:09:24;9.18;;;3.08;;
44120;SDS011;29783;52.504;13.478;2023-09-18T09:11:51;5.63;;;3.00;;
44120;SDS011;29783;52.504;13.478;2023-09-18T09:14:17;6.28;;;2.88;;
44120;SDS011;29783;52.504;13.478;2023-09-18T09:16:49;11.20;;;3.53;;
44120;SDS011;29783;52.504;13.478;2023-09-18T09:19:16;6.60;;;3.17;;
44120;SDS011;29783;52.504;13.478;2023-09-18T09:21:43;4.90;;;3.08;;
44120;SDS011;29783;52.504;13.478;2023-09-18T09:24:10;4.55;;;2.97;;
44120;SDS011;29783;52.504;13.478;2023-09-18T09:26:39;11.45;;;2.53;;
44120;SDS011;29783;52.504;13.478;2023-09-18T09:29:19;4.60;;;2.88;;
44120;SDS011;29783;52.504;13.478;2023-09-18T09:31:46;5.97;;;2.42;;
44120;SDS011;29783;52.504;13.478;2023-09-18T09:34:12;7.65;;;2.83;;
44120;SDS011;29783;52.504;13.478;2023-09-18T09:36:55;6.25;;;2.47;;
44120;SDS011;29783;52.504;13.478;2023-09-18T09:39:21;2.83;;;2.40;;
44120;SDS011;29783;52.504;13.478;2023-09-18T09:41:50;5.50;;;2.80;;
44120;SDS011;29783;52.504;13.478;2023-09-18T09:44:17;3.67;;;2.25;;
44120;SDS011;29783;52.504;13.478;2023-09-18T09:46:47;3.80;;;2.65;;
44120;SDS011;29783;52.504;13.478;2023-09-18T09:49:14;6.32;;;2.42;;
44120;SDS011;29783;52.504;13.478;2023-09-18T09:51:42;6.45;;;2.17;;
44120;SDS011;29783;52.504;13.478;2023-09-18T09:54:07;4.95;;;2.60;;
44120;SDS011;29783;52.504;13.478;2023-09-18T09:59:13;13.23;;;3.13;;
44120;SDS011;29783;52.504;13.478;2023-09-18T10:01:40;6.78;;;3.17;;
44120;SDS011;29783;52.504;13.478;2023-09-18T10:04:24;9.10;;;2.88;;
44120;SDS011;29783;52.504;13.478;2023-09-18T10:06:57;10.07;;;2.53;;
44120;SDS011;29783;52.504;13.478;2023-09-18T10:09:27;9.60;;;2.47;;
44120;SDS011;29783;52.504;13.478;2023-09-18T10:11:54;6.03;;;2.78;;
44120;SDS011;29783;52.504;13.478;2023-09-18T10:14:31;7.85;;;2.63;;
44120;SDS011;29783;52.504;13.478;2023-09-18T10:17:03;4.88;;;2.30;;
44120;SDS011;29783;52.504;13.478;2023-09-18T10:19:43;6.32;;;2.65;;
44120;SDS011;29783;52.504;13.478;2023-09-18T10:24:59;5.57;;;2.78;;
44120;SDS011;29783;52.504;13.478;2023-09-18T10:27:32;10.45;;;2.70;;
44120;SDS011;29783;52.504;13.478;2023-09-18T10:29:58;9.45;;;3.08;;
44120;SDS011;29783;52.504;13.478;2023-09-18T10:32:29;9.07;;;3.15;;
44120;SDS011;29783;52.504;13.478;2023-09-18T10:34:57;10.18;;;3.03;;
44120;SDS011;29783;52.504;13.478;2023-09-18T10:37:25;5.65;;;2.83;;
44120;SDS011;29783;52.504;13.478;2023-09-18T10:39:53;7.45;;;2.90;;
44120;SDS011;29783;52.504;13.478;2023-09-18T10:42:21;4.15;;;2.38;;
44120;SDS011;29783;52.504;13.478;2023-09-18T10:44:48;6.20;;;2.75;;
44120;SDS011;29783;52.504;13.478;2023-09-18T10:47:15;10.50;;;2.88;;
44120;SDS011;29783;52.504;13.478;2023-09-18T10:49:42;5.53;;;2.65;;
44120;SDS011;29783;52.504;13.478;2023-09-18T10:52:12;9.02;;;2.33;;
44120;SDS011;29783;52.504;13.478;2023-09-18T10:54:38;3.80;;;2.50;;
44120;SDS011;29783;52.504;13.478;2023-09-18T10:57:05;6.80;;;2.80;;
44120;SDS011;29783;52.504;13.478;2023-09-18T10:59:31;4.70;;;2.30;;
44120;SDS011;29783;52.504;13.478;2023-09-18T11:02:02;3.88;;;2.20;;
44120;SDS011;29783;52.504;13.478;2023-09-18T11:04:30;6.13;;;2.80;;
44120;SDS011;29783;52.504;13.478;2023-09-18T11:09:24;5.30;;;2.67;;
44120;SDS011;29783;52.504;13.478;2023-09-18T11:11:54;6.22;;;2.70;;
44120;SDS011;29783;52.504;13.478;2023-09-18T11:14:47;3.38;;;2.38;;
44120;SDS011;29783;52.504;13.478;2023-09-18T11:20:04;9.27;;;2.70;;
44120;SDS011;29783;52.504;13.478;2023-09-18T11:22:34;8.65;;;2.95;;
44120;SDS011;29783;52.504;13.478;2023-09-18T11:28:02;10.07;;;2.80;;
44120;SDS011;29783;52.504;13.478;2023-09-18T11:30:32;4.93;;;2.78;;
44120;SDS011;29783;52.504;13.478;2023-09-18T11:33:02;5.35;;;2.67;;
44120;SDS011;29783;52.504;13.478;2023-09-18T11:35:29;4.18;;;2.58;;
44120;SDS011;29783;52.504;13.478;2023-09-18T11:38:08;8.15;;;3.00;;
44120;SDS011;29783;52.504;13.478;2023-09-18T11:40:35;3.72;;;2.58;;
44120;SDS011;29783;52.504;13.478;2023-09-18T11:45:58;5.70;;;2.83;;
44120;SDS011;29783;52.504;13.478;2023-09-18T11:48:25;10.52;;;2.90;;
44120;SDS011;29783;52.504;13.478;2023-09-18T11:50:57;4.82;;;2.45;;
44120;SDS011;29783;52.504;13.478;2023-09-18T11:53:24;4.85;;;2.72;;
44120;SDS011;29783;52.504;13.478;2023-09-18T11:55:52;10.40;;;2.95;;
44120;SDS011;29783;52.504;13.478;2023-09-18T11:58:18;7.20;;;3.00;;
44120;SDS011;29783;52.504;13.478;2023-09-18T12:00:48;6.63;;;2.75;;
44120;SDS011;29783;52.504;13.478;2023-09-18T12:05:56;9.85;;;2.88;;
44120;SDS011;29783;52.504;13.478;2023-09-18T12:08:24;8.98;;;2.85;;
44120;SDS011;29783;52.504;13.478;2023-09-18T12:10:55;9.80;;;3.00;;
44120;SDS011;29783;52.504;13.478;2023-09-18T12:13:21;7.78;;;2.95;;
44120;SDS011;29783;52.504;13.478;2023-09-18T12:15:49;10.73;;;2.63;;
44120;SDS011;29783;52.504;13.478;2023-09-18T12:18:21;5.93;;;2.85;;
44120;SDS011;29783;52.504;13.478;2023-09-18T12:20:49;4.95;;;2.50;;
44120;SDS011;29783;52.504;13.478;2023-09-18T12:23:16;5.70;;;2.65;;
44120;SDS011;29783;52.504;13.478;2023-09-18T12:25:50;14.25;;;2.60;;
44120;SDS011;29783;52.504;13.478;2023-09-18T12:28:22;14.27;;;3.28;;
44120;SDS011;29783;52.504;13.478;2023-09-18T12:30:47;10.80;;;3.20;;
44120;SDS011;29783;52.504;13.478;2023-09-18T12:33:15;11.57;;;2.90;;
44120;SDS011;29783;52.504;13.478;2023-09-18T12:35:42;5.32;;;2.72;;
44120;SDS011;29783;52.504;13.478;2023-09-18T12:38:14;7.50;;;2.63;;
44120;SDS011;29783;52.504;13.478;2023-09-18T12:40:41;5.35;;;3.00;;
44120;SDS011;29783;52.504;13.478;2023-09-18T12:43:09;7.88;;;2.70;;
44120;SDS011;29783;52.504;13.478;2023-09-18T12:45:35;9.13;;;2.70;;
44120;SDS011;29783;52.504;13.478;2023-09-18T12:48:01;7.85;;;2.63;;
44120;SDS011;29783;52.504;13.478;2023-09-18T12:55:46;7.82;;;2.45;;
44120;SDS011;29783;52.504;13.478;2023-09-18T12:58:11;11.15;;;2.60;;
44120;SDS011;29783;52.504;13.478;2023-09-18T13:00:44;8.07;;;2.50;;
44120;SDS011;29783;52.504;13.478;2023-09-18T13:03:14;14.23;;;2.55;;
44120;SDS011;29783;52.504;13.478;2023-09-18T13:05:41;6.50;;;2.78;;
44120;SDS011;29783;52.504;13.478;2023-09-18T13:08:06;6.70;;;2.83;;
44120;SDS011;29783;52.504;13.478;2023-09-18T13:11:07;7.60;;;2.70;;
44120;SDS011;29783;52.504;13.478;2023-09-18T13:13:28;9.63;;;2.63;;
44120;SDS011;29783;52.504;13.478;2023-09-18T13:15:57;7.22;;;2.65;;
44120;SDS011;29783;52.504;13.478;2023-09-18T13:18:24;12.05;;;3.00;;
44120;SDS011;29783;52.504;13.478;2023-09-18T13:20:51;23.05;;;3.00;;
44120;SDS011;29783;52.504;13.478;2023-09-18T13:23:17;15.13;;;3.20;;
44120;SDS011;29783;52.504;13.478;2023-09-18T13:25:43;13.27;;;2.88;;
44120;SDS011;29783;52.504;13.478;2023-09-18T13:28:11;12.70;;;2.90;;
44120;SDS011;29783;52.504;13.478;2023-09-18T13:30:37;7.65;;;2.67;;
44120;SDS011;29783;52.504;13.478;2023-09-18T13:33:15;6.72;;;2.85;;
44120;SDS011;29783;52.504;13.478;2023-09-18T13:35:42;9.48;;;2.60;;
44120;SDS011;29783;52.504;13.478;2023-09-18T13:38:09;10.70;;;3.00;;
44120;SDS011;29783;52.504;13.478;2023-09-18T13:40:36;13.68;;;3.35;;
44120;SDS011;29783;52.504;13.478;2023-09-18T13:43:02;20.95;;;2.97;;
44120;SDS011;29783;52.504;13.478;2023-09-18T13:45:29;23.70;;;3.10;;
44120;SDS011;29783;52.504;13.478;2023-09-18T13:47:55;10.10;;;3.03;;
44120;SDS011;29783;52.504;13.478;2023-09-18T13:50:21;12.73;;;3.10;;
44120;SDS011;29783;52.504;13.478;2023-09-18T13:52:47;18.90;;;3.25;;
44120;SDS011;29783;52.504;13.478;2023-09-18T13:55:12;15.48;;;3.65;;
44120;SDS011;29783;52.504;13.478;2023-09-18T13:57:38;14.68;;;3.08;;
44120;SDS011;29783;52.504;13.478;2023-09-18T14:00:07;18.00;;;2.83;;
44120;SDS011;29783;52.504;13.478;2023-09-18T14:02:36;11.63;;;3.05;;
44120;SDS011;29783;52.504;13.478;2023-09-18T14:05:03;10.25;;;3.40;;
44120;SDS011;29783;52.504;13.478;2023-09-18T14:07:29;10.20;;;3.13;;
44120;SDS011;29783;52.504;13.478;2023-09-18T14:09:55;6.30;;;2.90;;
44120;SDS011;29783;52.504;13.478;2023-09-18T14:12:21;12.48;;;3.00;;
44120;SDS011;29783;52.504;13.478;2023-09-18T14:14:47;9.73;;;3.08;;
44120;SDS011;29783;52.504;13.478;2023-09-18T14:17:12;15.02;;;3.22;;
44120;SDS011;29783;52.504;13.478;2023-09-18T14:19:38;6.22;;;2.88;;
44120;SDS011;29783;52.504;13.478;2023-09-18T14:22:07;10.85;;;3.08;;
44120;SDS011;29783;52.504;13.478;2023-09-18T14:24:33;11.55;;;3.10;;
44120;SDS011;29783;52.504;13.478;2023-09-18T14:27:03;8.63;;;2.97;;
44120;SDS011;29783;52.504;13.478;2023-09-18T14:29:29;11.77;;;3.33;;
44120;SDS011;29783;52.504;13.478;2023-09-18T14:31:55;7.90;;;3.10;;
44120;SDS011;29783;52.504;13.478;2023-09-18T14:34:22;12.52;;;2.95;;
44120;SDS011;29783;52.504;13.478;2023-09-18T14:36:48;18.80;;;2.90;;
44120;SDS011;29783;52.504;13.478;2023-09-18T14:39:13;8.32;;;2.83;;
44120;SDS011;29783;52.504;13.478;2023-09-18T14:41:39;16.38;;;2.90;;
44120;SDS011;29783;52.504;13.478;2023-09-18T14:44:06;15.38;;;3.13;;
44120;SDS011;29783;52.504;13.478;2023-09-18T14:46:34;12.30;;;2.85;;
44120;SDS011;29783;52.504;13.478;2023-09-18T14:49:00;6.82;;;2.70;;
44120;SDS011;29783;52.504;13.478;2023-09-18T14:51:26;11.68;;;2.55;;
44120;SDS011;29783;52.504;13.478;2023-09-18T14:53:55;7.00;;;2.30;;
44120;SDS011;29783;52.504;13.478;2023-09-18T14:56:22;4.78;;;2.17;;
44120;SDS011;29783;52.504;13.478;2023-09-18T14:58:48;10.70;;;2.30;;
44120;SDS011;29783;52.504;13.478;2023-09-18T15:01:14;18.33;;;2.40;;
44120;SDS011;29783;52.504;13.478;2023-09-18T15:03:43;15.38;;;2.20;;